sensor_id;sensor_type;location;lat;lon;timestamp;pressure;altitude;pressure_sealevel;temperature;humidity
72486;BME280;60509;47.308;-122.428;2022-09-21T00:00:11;100370.92;;;25.64;8.77
72486;BME280;60509;47.308;-122.428;2022-09-21T00:02:36;100373.49;;;25.55;8.31
72486;BME280;60509;47.308;-122.428;2022-09-21T00:05:01;100369.17;;;27.27;7.71
72486;BME280;60509;47.308;-122.428;2022-09-21T00:07:27;100370.05;;;26.54;7.83
72486;BME280;60509;47.308;-122.428;2022-09-21T00:09:52;100370.22;;;27.78;7.37
72486;BME280;60509;47.308;-122.428;2022-09-21T00:12:17;100368.25;;;26.83;7.32
72486;BME280;60509;47.308;-122.428;2022-09-21T00:14:42;100370.52;;;29.29;6.46
72486;BME280;60509;47.308;-122.428;2022-09-21T00:17:07;100371.54;;;27.76;6.79
72486;BME280;60509;47.308;-122.428;2022-09-21T00:19:34;100372.44;;;25.32;7.47
72486;BME280;60509;47.308;-122.428;2022-09-21T00:21:58;100374.25;;;26.35;7.10
72486;BME280;60509;47.308;-122.428;2022-09-21T00:24:23;100368.99;;;29.26;6.43
72486;BME280;60509;47.308;-122.428;2022-09-21T00:26:48;100373.26;;;27.64;6.54
72486;BME280;60509;47.308;-122.428;2022-09-21T00:29:13;100370.81;;;28.93;6.21
72486;BME280;60509;47.308;-122.428;2022-09-21T00:31:38;100376.32;;;25.18;6.98
72486;BME280;60509;47.308;-122.428;2022-09-21T00:34:03;100379.30;;;26.83;6.75
72486;BME280;60509;47.308;-122.428;2022-09-21T00:36:29;100381.38;;;26.99;7.20
72486;BME280;60509;47.308;-122.428;2022-09-21T00:38:55;100375.43;;;24.04;7.92
72486;BME280;60509;47.308;-122.428;2022-09-21T00:41:19;100378.31;;;26.99;7.22
72486;BME280;60509;47.308;-122.428;2022-09-21T00:43:46;100379.06;;;25.49;7.58
72486;BME280;60509;47.308;-122.428;2022-09-21T00:46:15;100375.14;;;24.97;7.74
72486;BME280;60509;47.308;-122.428;2022-09-21T00:48:34;100379.89;;;26.76;7.20
72486;BME280;60509;47.308;-122.428;2022-09-21T00:51:04;100382.01;;;25.73;7.62
72486;BME280;60509;47.308;-122.428;2022-09-21T00:53:24;100387.19;;;25.96;7.87
72486;BME280;60509;47.308;-122.428;2022-09-21T00:55:52;100386.53;;;26.73;7.60
72486;BME280;60509;47.308;-122.428;2022-09-21T00:58:20;100386.66;;;28.63;7.13
72486;BME280;60509;47.308;-122.428;2022-09-21T01:00:40;100384.38;;;23.99;8.05
72486;BME280;60509;47.308;-122.428;2022-09-21T01:03:06;100384.54;;;25.13;7.75
72486;BME280;60509;47.308;-122.428;2022-09-21T01:05:31;100383.63;;;26.48;7.52
72486;BME280;60509;47.308;-122.428;2022-09-21T01:07:57;100382.99;;;25.30;7.78
72486;BME280;60509;47.308;-122.428;2022-09-21T01:10:21;100383.68;;;26.68;7.63
72486;BME280;60509;47.308;-122.428;2022-09-21T01:12:57;100381.38;;;25.15;7.90
72486;BME280;60509;47.308;-122.428;2022-09-21T01:15:22;100383.61;;;24.86;8.45
72486;BME280;60509;47.308;-122.428;2022-09-21T01:17:42;100385.01;;;23.22;8.75
72486;BME280;60509;47.308;-122.428;2022-09-21T01:21:09;100383.36;;;24.10;8.67
72486;BME280;60509;47.308;-122.428;2022-09-21T01:22:40;100388.70;;;20.86;10.14
72486;BME280;60509;47.308;-122.428;2022-09-21T01:25:01;100387.02;;;22.77;9.54
72486;BME280;60509;47.308;-122.428;2022-09-21T01:27:57;100388.12;;;22.57;9.88
72486;BME280;60509;47.308;-122.428;2022-09-21T01:29:45;100388.23;;;20.88;10.77
72486;BME280;60509;47.308;-122.428;2022-09-21T01:32:12;100389.18;;;18.49;11.97
72486;BME280;60509;47.308;-122.428;2022-09-21T01:34:37;100393.05;;;18.96;12.31
72486;BME280;60509;47.308;-122.428;2022-09-21T01:37:03;100393.38;;;19.31;12.46
72486;BME280;60509;47.308;-122.428;2022-09-21T01:39:25;100399.61;;;16.47;13.67
72486;BME280;60509;47.308;-122.428;2022-09-21T01:41:51;100398.22;;;16.30;14.37
72486;BME280;60509;47.308;-122.428;2022-09-21T01:44:18;100399.65;;;16.10;14.69
72486;BME280;60509;47.308;-122.428;2022-09-21T01:46:41;100398.36;;;15.72;14.97
72486;BME280;60509;47.308;-122.428;2022-09-21T01:49:10;100399.85;;;16.42;14.83
72486;BME280;60509;47.308;-122.428;2022-09-21T01:51:33;100403.56;;;16.96;14.49
72486;BME280;60509;47.308;-122.428;2022-09-21T01:54:00;100403.58;;;16.90;14.70
72486;BME280;60509;47.308;-122.428;2022-09-21T01:56:26;100407.01;;;17.70;14.48
72486;BME280;60509;47.308;-122.428;2022-09-21T01:58:54;100406.49;;;14.69;15.99
72486;BME280;60509;47.308;-122.428;2022-09-21T02:01:17;100404.04;;;16.56;15.13
72486;BME280;60509;47.308;-122.428;2022-09-21T02:03:42;100410.93;;;13.50;16.61
72486;BME280;60509;47.308;-122.428;2022-09-21T02:06:06;100410.64;;;14.09;16.92
72486;BME280;60509;47.308;-122.428;2022-09-21T02:08:31;100412.48;;;14.57;17.04
72486;BME280;60509;47.308;-122.428;2022-09-21T02:10:57;100412.23;;;13.17;17.86
72486;BME280;60509;47.308;-122.428;2022-09-21T02:13:23;100413.28;;;13.15;18.28
72486;BME280;60509;47.308;-122.428;2022-09-21T02:16:00;100413.91;;;13.27;18.54
72486;BME280;60509;47.308;-122.428;2022-09-21T02:18:20;100414.29;;;12.58;19.12
72486;BME280;60509;47.308;-122.428;2022-09-21T02:20:45;100411.62;;;11.69;19.80
72486;BME280;60509;47.308;-122.428;2022-09-21T02:23:10;100413.07;;;11.03;20.51
72486;BME280;60509;47.308;-122.428;2022-09-21T02:25:40;100415.96;;;10.63;21.26
72486;BME280;60509;47.308;-122.428;2022-09-21T02:28:03;100413.44;;;11.40;20.89
72486;BME280;60509;47.308;-122.428;2022-09-21T02:30:24;100414.01;;;10.31;21.40
72486;BME280;60509;47.308;-122.428;2022-09-21T02:32:53;100420.12;;;11.14;21.22
72486;BME280;60509;47.308;-122.428;2022-09-21T02:35:21;100418.14;;;12.22;21.17
72486;BME280;60509;47.308;-122.428;2022-09-21T02:37:45;100415.09;;;10.17;22.26
72486;BME280;60509;47.308;-122.428;2022-09-21T02:40:12;100419.96;;;10.66;22.37
72486;BME280;60509;47.308;-122.428;2022-09-21T02:42:35;100422.05;;;10.06;23.57
72486;BME280;60509;47.308;-122.428;2022-09-21T02:45:00;100417.01;;;10.63;23.46
72486;BME280;60509;47.308;-122.428;2022-09-21T02:47:28;100421.11;;;10.44;23.69
72486;BME280;60509;47.308;-122.428;2022-09-21T02:49:51;100422.26;;;10.01;24.34
72486;BME280;60509;47.308;-122.428;2022-09-21T02:52:16;100427.01;;;10.79;24.03
72486;BME280;60509;47.308;-122.428;2022-09-21T02:54:46;100431.50;;;9.77;24.49
72486;BME280;60509;47.308;-122.428;2022-09-21T02:57:06;100434.61;;;10.14;24.49
72486;BME280;60509;47.308;-122.428;2022-09-21T02:59:32;100433.86;;;10.37;24.45
72486;BME280;60509;47.308;-122.428;2022-09-21T03:01:58;100436.02;;;9.07;25.36
72486;BME280;60509;47.308;-122.428;2022-09-21T03:04:24;100441.57;;;9.48;25.26
72486;BME280;60509;47.308;-122.428;2022-09-21T03:06:49;100440.81;;;8.36;26.03
72486;BME280;60509;47.308;-122.428;2022-09-21T03:09:15;100443.53;;;9.88;25.37
72486;BME280;60509;47.308;-122.428;2022-09-21T03:11:41;100442.98;;;9.58;24.93
72486;BME280;60509;47.308;-122.428;2022-09-21T03:14:07;100445.40;;;8.65;25.43
72486;BME280;60509;47.308;-122.428;2022-09-21T03:16:33;100444.60;;;8.76;25.62
72486;BME280;60509;47.308;-122.428;2022-09-21T03:18:59;100443.17;;;7.58;26.65
72486;BME280;60509;47.308;-122.428;2022-09-21T03:21:25;100446.52;;;8.25;26.21
72486;BME280;60509;47.308;-122.428;2022-09-21T03:23:51;100446.86;;;9.49;25.56
72486;BME280;60509;47.308;-122.428;2022-09-21T03:26:17;100447.89;;;8.76;25.87
72486;BME280;60509;47.308;-122.428;2022-09-21T03:28:42;100445.74;;;7.71;26.45
72486;BME280;60509;47.308;-122.428;2022-09-21T03:31:08;100444.25;;;8.83;25.50
72486;BME280;60509;47.308;-122.428;2022-09-21T03:33:34;100446.47;;;8.51;26.16
72486;BME280;60509;47.308;-122.428;2022-09-21T03:36:00;100449.31;;;8.98;25.65
72486;BME280;60509;47.308;-122.428;2022-09-21T03:38:26;100449.82;;;8.79;25.60
72486;BME280;60509;47.308;-122.428;2022-09-21T03:40:52;100450.55;;;8.58;26.23
72486;BME280;60509;47.308;-122.428;2022-09-21T03:43:18;100454.19;;;9.03;26.31
72486;BME280;60509;47.308;-122.428;2022-09-21T03:45:44;100452.34;;;7.33;27.27
72486;BME280;60509;47.308;-122.428;2022-09-21T03:48:11;100453.51;;;8.89;26.42
72486;BME280;60509;47.308;-122.428;2022-09-21T03:50:36;100456.19;;;8.22;26.78
72486;BME280;60509;47.308;-122.428;2022-09-21T03:53:02;100456.23;;;8.96;26.55
72486;BME280;60509;47.308;-122.428;2022-09-21T03:55:27;100458.30;;;8.50;26.48
72486;BME280;60509;47.308;-122.428;2022-09-21T03:57:53;100454.35;;;7.79;27.36
72486;BME280;60509;47.308;-122.428;2022-09-21T04:00:20;100453.58;;;7.27;27.44
72486;BME280;60509;47.308;-122.428;2022-09-21T04:02:45;100454.86;;;7.62;27.55
72486;BME280;60509;47.308;-122.428;2022-09-21T04:05:13;100456.45;;;7.76;27.50
72486;BME280;60509;47.308;-122.428;2022-09-21T04:07:37;100454.74;;;7.25;27.60
72486;BME280;60509;47.308;-122.428;2022-09-21T04:10:05;100455.11;;;8.28;26.86
72486;BME280;60509;47.308;-122.428;2022-09-21T04:12:29;100457.07;;;7.28;27.59
72486;BME280;60509;47.308;-122.428;2022-09-21T04:14:55;100457.51;;;6.91;27.72
72486;BME280;60509;47.308;-122.428;2022-09-21T04:17:21;100454.57;;;7.47;27.43
72486;BME280;60509;47.308;-122.428;2022-09-21T04:19:47;100456.23;;;7.92;26.99
72486;BME280;60509;47.308;-122.428;2022-09-21T04:22:13;100457.60;;;8.81;26.71
72486;BME280;60509;47.308;-122.428;2022-09-21T04:24:40;100455.95;;;8.29;26.84
72486;BME280;60509;47.308;-122.428;2022-09-21T04:27:05;100456.83;;;7.53;27.22
72486;BME280;60509;47.308;-122.428;2022-09-21T04:29:31;100453.83;;;7.02;27.57
72486;BME280;60509;47.308;-122.428;2022-09-21T04:31:57;100454.28;;;7.46;27.55
72486;BME280;60509;47.308;-122.428;2022-09-21T04:34:23;100452.81;;;7.24;27.39
72486;BME280;60509;47.308;-122.428;2022-09-21T04:36:49;100454.87;;;7.17;27.68
72486;BME280;60509;47.308;-122.428;2022-09-21T04:39:14;100457.18;;;6.91;27.86
72486;BME280;60509;47.308;-122.428;2022-09-21T04:41:40;100462.89;;;7.86;27.33
72486;BME280;60509;47.308;-122.428;2022-09-21T04:44:06;100465.99;;;7.13;27.79
72486;BME280;60509;47.308;-122.428;2022-09-21T04:46:32;100461.45;;;7.24;27.82
72486;BME280;60509;47.308;-122.428;2022-09-21T04:48:58;100464.53;;;8.06;26.90
72486;BME280;60509;47.308;-122.428;2022-09-21T04:51:24;100462.84;;;7.68;26.88
72486;BME280;60509;47.308;-122.428;2022-09-21T04:53:50;100468.36;;;6.96;27.56
72486;BME280;60509;47.308;-122.428;2022-09-21T04:56:16;100468.02;;;7.15;27.04
72486;BME280;60509;47.308;-122.428;2022-09-21T04:58:42;100469.43;;;7.35;27.43
72486;BME280;60509;47.308;-122.428;2022-09-21T05:01:08;100468.13;;;8.18;26.34
72486;BME280;60509;47.308;-122.428;2022-09-21T05:03:34;100470.34;;;7.22;27.12
72486;BME280;60509;47.308;-122.428;2022-09-21T05:05:59;100475.71;;;7.09;27.51
72486;BME280;60509;47.308;-122.428;2022-09-21T05:08:26;100478.13;;;8.11;26.92
72486;BME280;60509;47.308;-122.428;2022-09-21T05:10:51;100475.02;;;8.21;26.70
72486;BME280;60509;47.308;-122.428;2022-09-21T05:13:17;100474.77;;;7.22;27.51
72486;BME280;60509;47.308;-122.428;2022-09-21T05:15:43;100472.75;;;7.12;27.14
72486;BME280;60509;47.308;-122.428;2022-09-21T05:18:09;100476.45;;;6.85;27.44
72486;BME280;60509;47.308;-122.428;2022-09-21T05:20:35;100475.05;;;7.04;26.98
72486;BME280;60509;47.308;-122.428;2022-09-21T05:23:01;100476.62;;;7.73;26.93
72486;BME280;60509;47.308;-122.428;2022-09-21T05:25:27;100481.16;;;7.21;26.90
72486;BME280;60509;47.308;-122.428;2022-09-21T05:27:53;100482.05;;;8.15;26.27
72486;BME280;60509;47.308;-122.428;2022-09-21T05:30:20;100484.54;;;8.25;25.98
72486;BME280;60509;47.308;-122.428;2022-09-21T05:32:51;100484.44;;;6.60;26.72
72486;BME280;60509;47.308;-122.428;2022-09-21T05:35:19;100481.66;;;7.94;25.52
72486;BME280;60509;47.308;-122.428;2022-09-21T05:37:44;100484.47;;;7.92;25.21
72486;BME280;60509;47.308;-122.428;2022-09-21T05:40:04;100481.97;;;7.84;24.99
72486;BME280;60509;47.308;-122.428;2022-09-21T05:42:29;100484.59;;;7.80;25.25
72486;BME280;60509;47.308;-122.428;2022-09-21T05:44:55;100486.28;;;7.53;25.37
72486;BME280;60509;47.308;-122.428;2022-09-21T05:47:26;100491.64;;;8.01;24.94
72486;BME280;60509;47.308;-122.428;2022-09-21T05:49:52;100489.78;;;7.50;25.09
72486;BME280;60509;47.308;-122.428;2022-09-21T05:52:18;100495.13;;;7.34;25.40
72486;BME280;60509;47.308;-122.428;2022-09-21T05:54:48;100495.32;;;6.74;25.60
72486;BME280;60509;47.308;-122.428;2022-09-21T05:57:11;100496.77;;;7.84;25.26
72486;BME280;60509;47.308;-122.428;2022-09-21T05:59:40;100497.79;;;7.77;24.97
72486;BME280;60509;47.308;-122.428;2022-09-21T06:02:00;100498.71;;;7.90;25.06
72486;BME280;60509;47.308;-122.428;2022-09-21T06:04:22;100500.70;;;6.60;26.11
72486;BME280;60509;47.308;-122.428;2022-09-21T06:06:48;100499.79;;;6.61;25.81
72486;BME280;60509;47.308;-122.428;2022-09-21T06:09:14;100503.45;;;6.97;25.76
72486;BME280;60509;47.308;-122.428;2022-09-21T06:11:40;100507.46;;;6.73;26.04
72486;BME280;60509;47.308;-122.428;2022-09-21T06:14:06;100504.71;;;8.16;25.23
72486;BME280;60509;47.308;-122.428;2022-09-21T06:16:40;100509.79;;;8.53;24.64
72486;BME280;60509;47.308;-122.428;2022-09-21T06:18:58;100513.14;;;7.51;25.31
72486;BME280;60509;47.308;-122.428;2022-09-21T06:21:24;100506.93;;;8.22;25.11
72486;BME280;60509;47.308;-122.428;2022-09-21T06:23:50;100503.27;;;7.35;25.64
72486;BME280;60509;47.308;-122.428;2022-09-21T06:26:16;100502.05;;;8.18;25.51
72486;BME280;60509;47.308;-122.428;2022-09-21T06:28:41;100501.12;;;7.41;26.32
72486;BME280;60509;47.308;-122.428;2022-09-21T06:31:08;100498.12;;;7.12;26.43
72486;BME280;60509;47.308;-122.428;2022-09-21T06:33:33;100496.21;;;6.99;26.99
72486;BME280;60509;47.308;-122.428;2022-09-21T06:36:00;100498.33;;;6.23;27.97
72486;BME280;60509;47.308;-122.428;2022-09-21T06:38:27;100497.82;;;7.34;27.28
72486;BME280;60509;47.308;-122.428;2022-09-21T06:40:51;100494.37;;;7.62;27.04
72486;BME280;60509;47.308;-122.428;2022-09-21T06:43:17;100493.57;;;6.96;28.10
72486;BME280;60509;47.308;-122.428;2022-09-21T06:45:43;100494.72;;;7.60;27.40
72486;BME280;60509;47.308;-122.428;2022-09-21T06:48:09;100492.84;;;7.20;27.68
72486;BME280;60509;47.308;-122.428;2022-09-21T06:50:41;100490.05;;;6.36;28.29
72486;BME280;60509;47.308;-122.428;2022-09-21T06:53:01;100488.68;;;7.70;27.15
72486;BME280;60509;47.308;-122.428;2022-09-21T06:55:26;100488.54;;;6.60;28.37
72486;BME280;60509;47.308;-122.428;2022-09-21T06:57:53;100485.28;;;6.11;29.02
72486;BME280;60509;47.308;-122.428;2022-09-21T07:00:18;100488.07;;;6.20;29.16
72486;BME280;60509;47.308;-122.428;2022-09-21T07:02:44;100487.84;;;6.80;28.99
72486;BME280;60509;47.308;-122.428;2022-09-21T07:05:10;100493.29;;;6.55;29.76
72486;BME280;60509;47.308;-122.428;2022-09-21T07:07:35;100499.51;;;5.43;31.12
72486;BME280;60509;47.308;-122.428;2022-09-21T07:10:01;100497.02;;;5.47;31.46
72486;BME280;60509;47.308;-122.428;2022-09-21T07:12:26;100496.52;;;5.65;31.48
72486;BME280;60509;47.308;-122.428;2022-09-21T07:14:51;100502.01;;;4.88;31.82
72486;BME280;60509;47.308;-122.428;2022-09-21T07:17:16;100501.81;;;5.81;30.73
72486;BME280;60509;47.308;-122.428;2022-09-21T07:19:41;100502.30;;;5.20;31.46
72486;BME280;60509;47.308;-122.428;2022-09-21T07:22:06;100508.74;;;4.50;32.12
72486;BME280;60509;47.308;-122.428;2022-09-21T07:24:31;100510.45;;;5.30;31.61
72486;BME280;60509;47.308;-122.428;2022-09-21T07:26:57;100511.86;;;4.82;32.01
72486;BME280;60509;47.308;-122.428;2022-09-21T07:29:21;100513.27;;;4.95;32.26
72486;BME280;60509;47.308;-122.428;2022-09-21T07:31:46;100515.53;;;5.63;31.81
72486;BME280;60509;47.308;-122.428;2022-09-21T07:34:11;100517.51;;;4.38;33.45
72486;BME280;60509;47.308;-122.428;2022-09-21T07:36:36;100515.47;;;4.73;32.83
72486;BME280;60509;47.308;-122.428;2022-09-21T07:39:01;100513.61;;;5.03;32.49
72486;BME280;60509;47.308;-122.428;2022-09-21T07:41:26;100515.84;;;4.59;33.31
72486;BME280;60509;47.308;-122.428;2022-09-21T07:43:52;100514.94;;;4.62;32.73
72486;BME280;60509;47.308;-122.428;2022-09-21T07:46:16;100517.22;;;5.08;32.34
72486;BME280;60509;47.308;-122.428;2022-09-21T07:48:42;100515.85;;;5.63;31.47
72486;BME280;60509;47.308;-122.428;2022-09-21T07:51:08;100514.26;;;5.30;31.53
72486;BME280;60509;47.308;-122.428;2022-09-21T07:53:32;100511.93;;;5.39;31.19
72486;BME280;60509;47.308;-122.428;2022-09-21T07:56:02;100513.13;;;4.95;31.13
72486;BME280;60509;47.308;-122.428;2022-09-21T07:58:22;100508.02;;;5.55;30.53
72486;BME280;60509;47.308;-122.428;2022-09-21T08:00:47;100506.79;;;5.50;30.14
72486;BME280;60509;47.308;-122.428;2022-09-21T08:03:12;100506.46;;;5.93;29.80
72486;BME280;60509;47.308;-122.428;2022-09-21T08:05:37;100509.00;;;5.79;29.51
72486;BME280;60509;47.308;-122.428;2022-09-21T08:08:02;100504.89;;;4.77;30.93
72486;BME280;60509;47.308;-122.428;2022-09-21T08:10:27;100503.95;;;6.41;29.57
72486;BME280;60509;47.308;-122.428;2022-09-21T08:12:52;100502.35;;;4.99;30.40
72486;BME280;60509;47.308;-122.428;2022-09-21T08:15:17;100498.85;;;5.89;29.79
72486;BME280;60509;47.308;-122.428;2022-09-21T08:17:42;100496.89;;;5.39;29.08
72486;BME280;60509;47.308;-122.428;2022-09-21T08:20:08;100492.88;;;6.01;28.85
72486;BME280;60509;47.308;-122.428;2022-09-21T08:22:32;100499.34;;;5.85;29.19
72486;BME280;60509;47.308;-122.428;2022-09-21T08:24:57;100495.67;;;5.20;29.41
72486;BME280;60509;47.308;-122.428;2022-09-21T08:27:23;100490.51;;;5.41;29.05
72486;BME280;60509;47.308;-122.428;2022-09-21T08:29:47;100491.19;;;6.01;28.93
72486;BME280;60509;47.308;-122.428;2022-09-21T08:32:12;100483.64;;;6.31;28.67
72486;BME280;60509;47.308;-122.428;2022-09-21T08:34:37;100486.35;;;6.11;28.77
72486;BME280;60509;47.308;-122.428;2022-09-21T08:37:03;100487.22;;;5.61;29.07
72486;BME280;60509;47.308;-122.428;2022-09-21T08:39:28;100489.39;;;5.41;29.27
72486;BME280;60509;47.308;-122.428;2022-09-21T08:42:04;100491.45;;;5.65;29.27
72486;BME280;60509;47.308;-122.428;2022-09-21T08:44:20;100486.85;;;6.53;28.98
72486;BME280;60509;47.308;-122.428;2022-09-21T08:46:43;100483.64;;;6.15;29.28
72486;BME280;60509;47.308;-122.428;2022-09-21T08:49:11;100486.58;;;5.81;29.68
72486;BME280;60509;47.308;-122.428;2022-09-21T08:51:36;100484.48;;;6.36;29.55
72486;BME280;60509;47.308;-122.428;2022-09-21T08:54:02;100484.45;;;6.01;29.99
72486;BME280;60509;47.308;-122.428;2022-09-21T08:56:24;100483.99;;;6.15;30.02
72486;BME280;60509;47.308;-122.428;2022-09-21T08:58:48;100483.09;;;5.21;31.17
72486;BME280;60509;47.308;-122.428;2022-09-21T09:01:27;100479.34;;;6.32;30.33
72486;BME280;60509;47.308;-122.428;2022-09-21T09:03:54;100480.79;;;4.65;31.50
72486;BME280;60509;47.308;-122.428;2022-09-21T09:06:09;100478.74;;;5.43;31.09
72486;BME280;60509;47.308;-122.428;2022-09-21T09:08:43;100483.39;;;5.67;30.67
72486;BME280;60509;47.308;-122.428;2022-09-21T09:11:08;100483.34;;;5.43;31.20
72486;BME280;60509;47.308;-122.428;2022-09-21T09:13:33;100484.86;;;6.03;30.59
72486;BME280;60509;47.308;-122.428;2022-09-21T09:15:53;100484.16;;;5.79;30.61
72486;BME280;60509;47.308;-122.428;2022-09-21T09:18:13;100482.86;;;5.73;31.04
72486;BME280;60509;47.308;-122.428;2022-09-21T09:20:36;100485.74;;;5.33;31.03
72486;BME280;60509;47.308;-122.428;2022-09-21T09:23:08;100484.52;;;6.01;30.64
72486;BME280;60509;47.308;-122.428;2022-09-21T09:25:24;100486.74;;;4.63;31.46
72486;BME280;60509;47.308;-122.428;2022-09-21T09:27:51;100486.53;;;5.88;31.10
72486;BME280;60509;47.308;-122.428;2022-09-21T09:30:18;100486.64;;;5.42;30.96
72486;BME280;60509;47.308;-122.428;2022-09-21T09:32:42;100485.40;;;5.25;30.67
72486;BME280;60509;47.308;-122.428;2022-09-21T09:35:15;100485.90;;;4.90;31.04
72486;BME280;60509;47.308;-122.428;2022-09-21T09:37:34;100486.75;;;4.93;31.21
72486;BME280;60509;47.308;-122.428;2022-09-21T09:39:56;100488.29;;;4.90;31.12
72486;BME280;60509;47.308;-122.428;2022-09-21T09:42:32;100485.93;;;5.27;30.98
72486;BME280;60509;47.308;-122.428;2022-09-21T09:44:57;100489.10;;;4.98;31.12
72486;BME280;60509;47.308;-122.428;2022-09-21T09:47:15;100488.07;;;5.66;30.55
72486;BME280;60509;47.308;-122.428;2022-09-21T09:49:44;100492.44;;;4.44;31.77
72486;BME280;60509;47.308;-122.428;2022-09-21T09:52:00;100491.74;;;4.51;32.25
72486;BME280;60509;47.308;-122.428;2022-09-21T09:54:26;100492.51;;;4.25;32.86
72486;BME280;60509;47.308;-122.428;2022-09-21T09:56:50;100489.26;;;4.23;32.66
72486;BME280;60509;47.308;-122.428;2022-09-21T09:59:22;100493.28;;;4.23;32.77
72486;BME280;60509;47.308;-122.428;2022-09-21T10:01:42;100489.78;;;4.56;32.07
72486;BME280;60509;47.308;-122.428;2022-09-21T10:04:06;100485.48;;;5.71;31.43
72486;BME280;60509;47.308;-122.428;2022-09-21T10:06:31;100490.31;;;4.86;31.56
72486;BME280;60509;47.308;-122.428;2022-09-21T10:08:55;100487.46;;;5.74;30.91
72486;BME280;60509;47.308;-122.428;2022-09-21T10:11:20;100485.80;;;5.74;31.19
72486;BME280;60509;47.308;-122.428;2022-09-21T10:13:46;100486.91;;;5.32;31.71
72486;BME280;60509;47.308;-122.428;2022-09-21T10:16:13;100483.77;;;5.64;31.79
72486;BME280;60509;47.308;-122.428;2022-09-21T10:18:38;100486.07;;;5.55;33.16
72486;BME280;60509;47.308;-122.428;2022-09-21T10:21:02;100490.57;;;4.77;34.22
72486;BME280;60509;47.308;-122.428;2022-09-21T10:23:26;100496.79;;;3.68;35.68
72486;BME280;60509;47.308;-122.428;2022-09-21T10:25:57;100488.71;;;4.59;34.59
72486;BME280;60509;47.308;-122.428;2022-09-21T10:28:22;100491.36;;;4.11;36.52
72486;BME280;60509;47.308;-122.428;2022-09-21T10:30:41;100492.06;;;4.28;36.15
72486;BME280;60509;47.308;-122.428;2022-09-21T10:33:18;100489.34;;;4.28;36.19
72486;BME280;60509;47.308;-122.428;2022-09-21T10:35:31;100490.64;;;3.43;36.95
72486;BME280;60509;47.308;-122.428;2022-09-21T10:38:16;100495.11;;;3.47;37.45
72486;BME280;60509;47.308;-122.428;2022-09-21T10:40:25;100491.67;;;3.98;36.03
72486;BME280;60509;47.308;-122.428;2022-09-21T10:42:48;100488.03;;;3.71;36.23
72486;BME280;60509;47.308;-122.428;2022-09-21T10:45:16;100488.25;;;3.26;36.77
72486;BME280;60509;47.308;-122.428;2022-09-21T10:47:39;100485.05;;;3.31;36.30
72486;BME280;60509;47.308;-122.428;2022-09-21T10:50:04;100484.58;;;3.03;37.14
72486;BME280;60509;47.308;-122.428;2022-09-21T10:52:35;100486.08;;;3.54;36.89
72486;BME280;60509;47.308;-122.428;2022-09-21T10:54:55;100483.94;;;2.35;37.85
72486;BME280;60509;47.308;-122.428;2022-09-21T10:57:19;100482.68;;;2.62;37.31
72486;BME280;60509;47.308;-122.428;2022-09-21T10:59:42;100482.89;;;4.10;35.92
72486;BME280;60509;47.308;-122.428;2022-09-21T11:02:33;100488.74;;;4.11;35.49
72486;BME280;60509;47.308;-122.428;2022-09-21T11:04:42;100488.15;;;4.05;35.43
72486;BME280;60509;47.308;-122.428;2022-09-21T11:07:03;100487.24;;;3.67;36.25
72486;BME280;60509;47.308;-122.428;2022-09-21T11:09:27;100488.01;;;1.97;39.05
72486;BME280;60509;47.308;-122.428;2022-09-21T11:11:51;100486.64;;;2.81;37.69
72486;BME280;60509;47.308;-122.428;2022-09-21T11:14:23;100487.78;;;3.19;37.15
72486;BME280;60509;47.308;-122.428;2022-09-21T11:16:43;100486.08;;;2.52;37.42
72486;BME280;60509;47.308;-122.428;2022-09-21T11:19:13;100485.80;;;2.80;37.78
72486;BME280;60509;47.308;-122.428;2022-09-21T11:21:34;100481.49;;;3.17;37.48
72486;BME280;60509;47.308;-122.428;2022-09-21T11:24:11;100481.81;;;3.24;37.48
72486;BME280;60509;47.308;-122.428;2022-09-21T11:26:24;100480.92;;;2.77;37.82
72486;BME280;60509;47.308;-122.428;2022-09-21T11:28:48;100480.62;;;2.77;38.75
72486;BME280;60509;47.308;-122.428;2022-09-21T11:31:39;100479.03;;;3.15;39.06
72486;BME280;60509;47.308;-122.428;2022-09-21T11:33:46;100480.14;;;2.36;38.94
72486;BME280;60509;47.308;-122.428;2022-09-21T11:36:05;100479.07;;;1.81;39.68
72486;BME280;60509;47.308;-122.428;2022-09-21T11:38:36;100476.82;;;2.39;39.43
72486;BME280;60509;47.308;-122.428;2022-09-21T11:41:14;100476.07;;;3.16;39.09
72486;BME280;60509;47.308;-122.428;2022-09-21T11:43:27;100472.57;;;3.29;39.29
72486;BME280;60509;47.308;-122.428;2022-09-21T11:45:52;100476.06;;;2.53;39.78
72486;BME280;60509;47.308;-122.428;2022-09-21T11:48:13;100472.48;;;2.11;40.83
72486;BME280;60509;47.308;-122.428;2022-09-21T11:50:41;100474.34;;;2.77;40.00
72486;BME280;60509;47.308;-122.428;2022-09-21T11:53:05;100473.01;;;1.96;41.22
72486;BME280;60509;47.308;-122.428;2022-09-21T11:55:34;100472.12;;;2.27;41.72
72486;BME280;60509;47.308;-122.428;2022-09-21T11:57:53;100476.34;;;1.65;42.50
72486;BME280;60509;47.308;-122.428;2022-09-21T12:00:14;100478.38;;;2.18;42.18
72486;BME280;60509;47.308;-122.428;2022-09-21T12:03:57;100477.74;;;2.34;41.84
72486;BME280;60509;47.308;-122.428;2022-09-21T12:05:10;100478.85;;;2.10;41.72
72486;BME280;60509;47.308;-122.428;2022-09-21T12:07:44;100478.34;;;3.45;39.95
72486;BME280;60509;47.308;-122.428;2022-09-21T12:10:05;100479.77;;;2.33;41.37
72486;BME280;60509;47.308;-122.428;2022-09-21T12:12:20;100480.94;;;2.44;42.16
72486;BME280;60509;47.308;-122.428;2022-09-21T12:14:49;100482.51;;;1.70;42.47
72486;BME280;60509;47.308;-122.428;2022-09-21T12:17:12;100481.46;;;3.68;41.28